Time;durP1;ratioP1;P1;durP2;ratioP2;P2;SDS_P1;SDS_P2;PMS_P1;PMS_P2;Temp;Humidity;BMP_temperature;BMP_pressure;BME280_temperature;BME280_humidity;BME280_pressure;Samples;Min_cycle;Max_cycle;Signal;HPM_P1;HPM_P2
2023/08/11 00:01:38;;;;;;;3.70;2.92;;;;;;;;;;5025442;28;20491;-70
2023/08/11 00:04:23;;;;;;;3.88;2.92;;;;;;;;;;5026827;28;20029;-69
2023/08/11 00:07:09;;;;;;;7.13;3.63;;;;;;;;;;5027479;28;20026;-70
2023/08/11 00:09:55;;;;;;;6.60;3.60;;;;;;;;;;5027058;28;20586;-74
2023/08/11 00:12:40;;;;;;;7.13;3.42;;;;;;;;;;5025856;28;20032;-75
2023/08/11 00:15:28;;;;;;;5.80;3.60;;;;;;;;;;5028161;28;20081;-75
2023/08/11 00:18:13;;;;;;;7.10;3.28;;;;;;;;;;5023429;28;20037;-74
2023/08/11 00:20:58;;;;;;;7.63;3.80;;;;;;;;;;5024917;28;20065;-76
2023/08/11 00:23:44;;;;;;;6.88;3.40;;;;;;;;;;5034591;28;20068;-75
2023/08/11 00:26:30;;;;;;;6.93;3.40;;;;;;;;;;5024794;28;20236;-72
2023/08/11 00:29:15;;;;;;;4.53;2.97;;;;;;;;;;5024411;28;20424;-78
2023/08/11 00:32:00;;;;;;;7.75;3.25;;;;;;;;;;5017765;28;20037;-79
2023/08/11 00:34:47;;;;;;;6.32;2.90;;;;;;;;;;5025970;28;20025;-79
2023/08/11 00:37:32;;;;;;;5.60;3.47;;;;;;;;;;5013915;28;20120;-82
2023/08/11 00:40:18;;;;;;;5.00;3.10;;;;;;;;;;5026586;28;20077;-81
2023/08/11 00:43:03;;;;;;;5.43;3.40;;;;;;;;;;5019662;28;20024;-81
2023/08/11 00:45:49;;;;;;;7.22;3.10;;;;;;;;;;5021566;28;20025;-73
2023/08/11 00:48:34;;;;;;;5.85;3.63;;;;;;;;;;5021921;28;20041;-74
2023/08/11 00:51:22;;;;;;;4.65;3.10;;;;;;;;;;5026047;28;20554;-74
2023/08/11 00:54:07;;;;;;;3.90;2.78;;;;;;;;;;5026313;28;20041;-74
2023/08/11 00:56:53;;;;;;;6.53;3.83;;;;;;;;;;5031464;28;20049;-74
2023/08/11 00:59:38;;;;;;;6.63;3.33;;;;;;;;;;5030159;28;20492;-75
2023/08/11 01:02:24;;;;;;;4.78;3.20;;;;;;;;;;5013934;28;20053;-74
2023/08/11 01:05:10;;;;;;;5.82;3.30;;;;;;;;;;5015426;28;20041;-70
2023/08/11 01:08:03;;;;;;;4.35;3.17;;;;;;;;;;5011660;28;20065;-75
2023/08/11 01:11:04;;;;;;;7.35;3.42;;;;;;;;;;5027373;28;20059;-75
2023/08/11 01:13:52;;;;;;;8.13;3.30;;;;;;;;;;5024734;28;20034;-76
2023/08/11 01:16:37;;;;;;;5.00;3.13;;;;;;;;;;5041040;28;20037;-75
2023/08/11 01:19:26;;;;;;;5.40;2.90;;;;;;;;;;5017219;28;20041;-75
2023/08/11 01:22:13;;;;;;;5.22;3.60;;;;;;;;;;5025813;28;20022;-69
2023/08/11 01:24:59;;;;;;;5.18;3.00;;;;;;;;;;5028785;28;20038;-80
2023/08/11 01:27:45;;;;;;;6.25;3.70;;;;;;;;;;5027600;28;20030;-80
2023/08/11 01:30:34;;;;;;;4.60;3.22;;;;;;;;;;5026918;28;20371;-81
2023/08/11 01:33:19;;;;;;;5.80;2.92;;;;;;;;;;5025127;28;20048;-80
2023/08/11 01:36:05;;;;;;;6.40;3.53;;;;;;;;;;5026468;28;20037;-79
2023/08/11 01:38:50;;;;;;;4.95;3.08;;;;;;;;;;5013929;28;20044;-80
2023/08/11 01:41:39;;;;;;;5.05;3.38;;;;;;;;;;5019078;28;20029;-80
2023/08/11 01:44:25;;;;;;;7.25;3.30;;;;;;;;;;5028803;28;20151;-69
2023/08/11 01:47:10;;;;;;;7.55;4.03;;;;;;;;;;5035703;28;20051;-68
2023/08/11 01:49:56;;;;;;;4.10;2.97;;;;;;;;;;5024450;28;20025;-69
2023/08/11 01:52:42;;;;;;;5.63;2.83;;;;;;;;;;5032835;28;20041;-68
2023/08/11 01:55:28;;;;;;;5.80;3.13;;;;;;;;;;5029218;28;20065;-70
2023/08/11 01:58:14;;;;;;;4.22;3.25;;;;;;;;;;5030336;28;20037;-68
2023/08/11 02:00:59;;;;;;;4.78;2.88;;;;;;;;;;5026835;28;20033;-73
2023/08/11 02:03:44;;;;;;;5.95;3.67;;;;;;;;;;5029803;28;20066;-76
2023/08/11 02:06:30;;;;;;;5.50;3.22;;;;;;;;;;5029559;28;20029;-76
2023/08/11 02:09:15;;;;;;;4.82;3.10;;;;;;;;;;5013230;28;20025;-75
2023/08/11 02:12:00;;;;;;;4.45;2.65;;;;;;;;;;5021349;28;20041;-75
2023/08/11 02:14:46;;;;;;;5.05;3.17;;;;;;;;;;5030221;28;20026;-74
2023/08/11 02:17:31;;;;;;;6.18;3.30;;;;;;;;;;5028511;28;20029;-80
2023/08/11 02:20:21;;;;;;;6.30;3.22;;;;;;;;;;5026317;28;20132;-73
2023/08/11 02:23:06;;;;;;;7.90;3.05;;;;;;;;;;5019494;28;20032;-75
2023/08/11 02:25:51;;;;;;;5.30;3.03;;;;;;;;;;5030582;28;20068;-75
2023/08/11 02:28:36;;;;;;;4.85;2.95;;;;;;;;;;5030461;28;20023;-75
2023/08/11 02:31:21;;;;;;;5.78;3.03;;;;;;;;;;5027700;28;20027;-75
2023/08/11 02:34:07;;;;;;;6.35;3.08;;;;;;;;;;5029470;28;20028;-74
2023/08/11 02:36:52;;;;;;;6.90;3.20;;;;;;;;;;5029675;28;20044;-71
2023/08/11 02:39:37;;;;;;;5.10;2.60;;;;;;;;;;5029646;28;20041;-74
2023/08/11 02:42:24;;;;;;;5.82;2.83;;;;;;;;;;5027574;28;20556;-74
2023/08/11 02:45:10;;;;;;;5.15;3.33;;;;;;;;;;5029076;28;20243;-74
2023/08/11 02:47:56;;;;;;;5.90;2.80;;;;;;;;;;5030808;28;20067;-74
2023/08/11 02:50:41;;;;;;;4.43;3.15;;;;;;;;;;5024156;28;20045;-73
2023/08/11 02:53:27;;;;;;;5.55;3.55;;;;;;;;;;5033264;28;20093;-75
2023/08/11 02:56:15;;;;;;;6.15;3.47;;;;;;;;;;5026610;28;20053;-71
2023/08/11 02:59:00;;;;;;;6.25;3.10;;;;;;;;;;5037626;28;20574;-73
2023/08/11 03:01:45;;;;;;;4.63;2.70;;;;;;;;;;5028247;28;20091;-74
2023/08/11 03:04:30;;;;;;;4.53;2.53;;;;;;;;;;5028928;28;20029;-73
2023/08/11 03:07:18;;;;;;;5.30;3.08;;;;;;;;;;5032982;28;20468;-74
2023/08/11 03:10:04;;;;;;;4.65;2.85;;;;;;;;;;5028047;28;20033;-74
2023/08/11 03:12:50;;;;;;;5.43;3.13;;;;;;;;;;5027975;28;20307;-70
2023/08/11 03:15:35;;;;;;;3.65;2.75;;;;;;;;;;5027691;28;20053;-67
2023/08/11 03:18:21;;;;;;;6.00;3.50;;;;;;;;;;5029257;28;20184;-68
2023/08/11 03:21:07;;;;;;;4.53;2.63;;;;;;;;;;5027205;28;20225;-71
2023/08/11 03:23:52;;;;;;;5.18;2.90;;;;;;;;;;5036810;28;20132;-69
2023/08/11 03:26:37;;;;;;;5.43;2.70;;;;;;;;;;5028979;28;20041;-69
2023/08/11 03:29:22;;;;;;;4.57;3.00;;;;;;;;;;5028812;28;20025;-68
2023/08/11 03:32:09;;;;;;;5.70;2.95;;;;;;;;;;5027225;28;20030;-68
2023/08/11 03:34:54;;;;;;;5.68;3.00;;;;;;;;;;5028943;28;20484;-74
2023/08/11 03:37:39;;;;;;;5.38;3.13;;;;;;;;;;5028442;28;20026;-75
2023/08/11 03:40:24;;;;;;;6.10;3.10;;;;;;;;;;5027947;28;20033;-74
2023/08/11 03:43:09;;;;;;;6.55;2.50;;;;;;;;;;5017964;28;20044;-75
2023/08/11 03:45:55;;;;;;;4.30;3.13;;;;;;;;;;5028238;28;20527;-75
2023/08/11 03:48:41;;;;;;;6.28;3.17;;;;;;;;;;5027985;28;20137;-76
2023/08/11 03:51:26;;;;;;;5.32;3.20;;;;;;;;;;5022242;28;20025;-74
2023/08/11 03:54:11;;;;;;;5.40;3.40;;;;;;;;;;5041706;28;20048;-75
2023/08/11 03:56:57;;;;;;;5.38;3.05;;;;;;;;;;5017868;28;20045;-73
2023/08/11 03:59:42;;;;;;;6.00;3.20;;;;;;;;;;5025282;28;20049;-73
2023/08/11 04:02:28;;;;;;;6.00;3.38;;;;;;;;;;5011563;28;20025;-74
2023/08/11 04:05:13;;;;;;;5.53;2.70;;;;;;;;;;5017795;28;20117;-73
2023/08/11 04:07:58;;;;;;;4.63;2.90;;;;;;;;;;5027891;28;20087;-69
2023/08/11 04:10:43;;;;;;;5.10;3.15;;;;;;;;;;5026816;28;20033;-74
2023/08/11 04:13:29;;;;;;;10.20;3.50;;;;;;;;;;5026341;28;20029;-75
2023/08/11 04:16:14;;;;;;;4.68;2.88;;;;;;;;;;5027713;28;20026;-73
2023/08/11 04:19:00;;;;;;;7.38;3.60;;;;;;;;;;5025900;28;20487;-74
2023/08/11 04:21:45;;;;;;;6.13;2.72;;;;;;;;;;5026720;28;20025;-74
2023/08/11 04:24:30;;;;;;;6.10;3.08;;;;;;;;;;5027589;28;20053;-74
2023/08/11 04:27:15;;;;;;;6.72;3.53;;;;;;;;;;5027987;28;20025;-77
2023/08/11 04:30:01;;;;;;;5.15;3.35;;;;;;;;;;5023492;28;20030;-72
2023/08/11 04:32:46;;;;;;;6.70;3.22;;;;;;;;;;5026121;28;20030;-72
2023/08/11 04:35:31;;;;;;;4.68;2.83;;;;;;;;;;5028498;28;20038;-74
2023/08/11 04:38:17;;;;;;;9.60;4.68;;;;;;;;;;5020759;28;20061;-73
2023/08/11 04:41:02;;;;;;;5.22;3.00;;;;;;;;;;5022273;28;20447;-72
2023/08/11 04:43:47;;;;;;;4.60;3.05;;;;;;;;;;5027150;28;20025;-74
2023/08/11 04:46:32;;;;;;;7.28;3.45;;;;;;;;;;5025179;28;20051;-74
2023/08/11 04:49:18;;;;;;;5.55;3.28;;;;;;;;;;5016345;28;20092;-73
2023/08/11 04:52:03;;;;;;;6.35;3.42;;;;;;;;;;5027553;28;20519;-73
2023/08/11 04:54:48;;;;;;;10.07;3.42;;;;;;;;;;5026073;28;20264;-72
2023/08/11 04:57:34;;;;;;;9.32;3.30;;;;;;;;;;5032458;28;20048;-73
2023/08/11 05:00:20;;;;;;;6.93;3.05;;;;;;;;;;5021237;28;20033;-76
2023/08/11 05:03:05;;;;;;;6.60;3.33;;;;;;;;;;5033606;28;20029;-74
2023/08/11 05:05:51;;;;;;;9.05;3.13;;;;;;;;;;5028370;28;20038;-73
2023/08/11 05:08:37;;;;;;;5.30;3.63;;;;;;;;;;5038901;28;20557;-72
2023/08/11 05:11:23;;;;;;;8.23;3.17;;;;;;;;;;5028947;28;20498;-74
2023/08/11 05:14:08;;;;;;;7.03;3.45;;;;;;;;;;5028791;28;20045;-73
2023/08/11 05:16:53;;;;;;;6.85;3.30;;;;;;;;;;5028604;28;20029;-74
2023/08/11 05:19:38;;;;;;;7.35;3.55;;;;;;;;;;5028413;28;20056;-76
2023/08/11 05:22:24;;;;;;;4.95;2.92;;;;;;;;;;5034453;28;20028;-78
2023/08/11 05:25:09;;;;;;;6.78;3.13;;;;;;;;;;5033358;28;20032;-75
2023/08/11 05:27:54;;;;;;;5.75;3.25;;;;;;;;;;5021879;28;20025;-74
2023/08/11 05:30:39;;;;;;;5.70;3.22;;;;;;;;;;5017238;28;20244;-72
2023/08/11 05:33:24;;;;;;;8.35;4.00;;;;;;;;;;5024249;28;20069;-72
2023/08/11 05:36:10;;;;;;;4.90;2.95;;;;;;;;;;5023019;28;20522;-72
2023/08/11 05:38:55;;;;;;;8.25;3.20;;;;;;;;;;5018365;28;20036;-76
2023/08/11 05:41:40;;;;;;;7.93;3.35;;;;;;;;;;5024660;28;20084;-73
2023/08/11 05:44:26;;;;;;;6.72;3.20;;;;;;;;;;5023546;28;20032;-77
2023/08/11 05:47:11;;;;;;;8.18;4.13;;;;;;;;;;5023367;28;20029;-72
2023/08/11 05:49:56;;;;;;;6.25;3.17;;;;;;;;;;5025445;28;20024;-73
2023/08/11 05:52:41;;;;;;;5.90;2.95;;;;;;;;;;5022581;28;20040;-73
2023/08/11 05:55:26;;;;;;;9.52;3.72;;;;;;;;;;5025523;28;20116;-75
2023/08/11 05:58:12;;;;;;;6.10;3.20;;;;;;;;;;5024585;28;20132;-70
2023/08/11 06:00:57;;;;;;;6.10;3.13;;;;;;;;;;5023821;28;20044;-80
2023/08/11 06:03:42;;;;;;;12.43;3.90;;;;;;;;;;5021480;28;20120;-78
2023/08/11 06:06:27;;;;;;;6.80;3.17;;;;;;;;;;5023171;28;20470;-78
2023/08/11 06:09:12;;;;;;;11.43;3.45;;;;;;;;;;5022092;28;20026;-87
2023/08/11 06:11:58;;;;;;;9.10;3.83;;;;;;;;;;5026681;28;20036;-81
2023/08/11 06:14:43;;;;;;;5.20;3.42;;;;;;;;;;5023342;28;20124;-83
2023/08/11 06:17:28;;;;;;;6.75;3.42;;;;;;;;;;5023128;28;20396;-71
2023/08/11 06:20:13;;;;;;;6.63;3.58;;;;;;;;;;5029951;28;20037;-71
2023/08/11 06:22:59;;;;;;;8.20;3.70;;;;;;;;;;5023122;28;20022;-71
2023/08/11 06:25:44;;;;;;;10.43;4.13;;;;;;;;;;5028044;28;20125;-73
2023/08/11 06:28:29;;;;;;;6.13;3.38;;;;;;;;;;5032657;28;20117;-72
2023/08/11 06:31:17;;;;;;;5.60;3.03;;;;;;;;;;5011448;28;20112;-76
2023/08/11 06:34:02;;;;;;;7.03;3.35;;;;;;;;;;5022600;28;20033;-74
2023/08/11 06:36:48;;;;;;;5.82;3.05;;;;;;;;;;5028688;28;20477;-76
2023/08/11 06:39:33;;;;;;;6.82;3.67;;;;;;;;;;5030369;28;20033;-79
2023/08/11 06:42:18;;;;;;;5.18;3.22;;;;;;;;;;5025067;28;22055;-76
2023/08/11 06:45:04;;;;;;;7.05;3.22;;;;;;;;;;5033338;28;20371;-78
2023/08/11 06:47:49;;;;;;;6.20;3.30;;;;;;;;;;5024388;28;20025;-80
2023/08/11 06:50:34;;;;;;;6.82;3.22;;;;;;;;;;5027266;28;20071;-78
2023/08/11 06:53:19;;;;;;;7.22;3.53;;;;;;;;;;5025314;28;20033;-79
2023/08/11 06:56:04;;;;;;;4.85;2.80;;;;;;;;;;5023628;28;20054;-81
2023/08/11 06:58:51;;;;;;;8.63;3.25;;;;;;;;;;5027092;28;20123;-74
2023/08/11 07:01:36;;;;;;;6.05;2.70;;;;;;;;;;5021291;28;20040;-79
2023/08/11 07:04:21;;;;;;;7.22;3.58;;;;;;;;;;5030387;28;20041;-74
2023/08/11 07:07:06;;;;;;;12.80;4.22;;;;;;;;;;5026022;28;20029;-70
2023/08/11 07:09:52;;;;;;;5.93;2.90;;;;;;;;;;5025720;28;20210;-75
2023/08/11 07:12:37;;;;;;;5.03;2.88;;;;;;;;;;5024395;28;20026;-72
2023/08/11 07:15:22;;;;;;;5.55;2.97;;;;;;;;;;5023065;28;20042;-68
2023/08/11 07:18:08;;;;;;;7.18;3.28;;;;;;;;;;5026193;28;20033;-66
2023/08/11 07:20:53;;;;;;;6.75;2.85;;;;;;;;;;5027709;28;20036;-67
2023/08/11 07:23:39;;;;;;;5.35;2.83;;;;;;;;;;5023461;28;20040;-68
2023/08/11 07:26:24;;;;;;;6.57;3.70;;;;;;;;;;5025859;28;20033;-70
2023/08/11 07:29:10;;;;;;;5.05;2.85;;;;;;;;;;5029137;28;20037;-74
2023/08/11 07:31:56;;;;;;;5.30;2.80;;;;;;;;;;5037892;28;20041;-66
2023/08/11 07:34:41;;;;;;;5.47;3.28;;;;;;;;;;5037015;28;20111;-67
2023/08/11 07:37:27;;;;;;;7.38;3.17;;;;;;;;;;5019378;28;20033;-68
2023/08/11 07:40:12;;;;;;;9.02;4.13;;;;;;;;;;5029480;28;20400;-68
2023/08/11 07:42:58;;;;;;;4.20;3.10;;;;;;;;;;5023095;28;20087;-71
2023/08/11 07:45:43;;;;;;;7.97;4.07;;;;;;;;;;5027940;28;20037;-68
2023/08/11 07:48:29;;;;;;;6.47;3.80;;;;;;;;;;5027512;28;20033;-71
2023/08/11 07:51:14;;;;;;;7.55;3.78;;;;;;;;;;5033040;28;20112;-67
2023/08/11 07:53:59;;;;;;;6.47;3.42;;;;;;;;;;5027994;28;20028;-69
2023/08/11 07:56:44;;;;;;;8.77;3.75;;;;;;;;;;5025225;28;20080;-68
2023/08/11 07:59:30;;;;;;;9.07;3.67;;;;;;;;;;5019645;28;20033;-69
2023/08/11 08:02:15;;;;;;;7.82;3.13;;;;;;;;;;5023287;28;20052;-70
2023/08/11 08:05:00;;;;;;;5.57;3.15;;;;;;;;;;5026020;28;20322;-71
2023/08/11 08:07:46;;;;;;;5.63;3.42;;;;;;;;;;5017811;28;20080;-74
2023/08/11 08:10:31;;;;;;;5.65;3.22;;;;;;;;;;5023957;28;20028;-69
2023/08/11 08:13:17;;;;;;;8.57;3.83;;;;;;;;;;5023010;28;20476;-68
2023/08/11 08:16:02;;;;;;;4.30;2.97;;;;;;;;;;5022234;28;20148;-68
2023/08/11 08:18:47;;;;;;;5.45;3.28;;;;;;;;;;5024657;28;20091;-65
2023/08/11 08:21:33;;;;;;;8.18;3.47;;;;;;;;;;5024812;28;20536;-70
2023/08/11 08:24:18;;;;;;;7.18;3.50;;;;;;;;;;5023783;28;20095;-70
2023/08/11 08:27:03;;;;;;;7.88;3.88;;;;;;;;;;5018082;28;20511;-67
2023/08/11 08:29:49;;;;;;;5.25;3.15;;;;;;;;;;5026578;28;20102;-75
2023/08/11 08:32:34;;;;;;;7.50;3.30;;;;;;;;;;5025304;28;20393;-78
2023/08/11 08:35:20;;;;;;;4.95;3.50;;;;;;;;;;5030720;28;20025;-78
2023/08/11 08:38:05;;;;;;;4.95;3.05;;;;;;;;;;5023871;28;20029;-79
2023/08/11 08:40:50;;;;;;;6.90;3.20;;;;;;;;;;5021262;28;20032;-71
2023/08/11 08:43:35;;;;;;;6.95;2.95;;;;;;;;;;5022389;28;20044;-72
2023/08/11 08:46:21;;;;;;;6.65;3.20;;;;;;;;;;5023135;28;20020;-73
2023/08/11 08:49:06;;;;;;;6.00;3.28;;;;;;;;;;5001308;28;20025;-72
2023/08/11 08:51:54;;;;;;;6.75;3.15;;;;;;;;;;5025760;28;20064;-71
2023/08/11 08:54:40;;;;;;;4.55;2.83;;;;;;;;;;5024974;28;20025;-74
2023/08/11 08:57:26;;;;;;;5.30;3.00;;;;;;;;;;5018286;28;20037;-71
2023/08/11 09:00:12;;;;;;;5.28;2.95;;;;;;;;;;5023525;28;20124;-72
2023/08/11 09:02:57;;;;;;;7.85;3.63;;;;;;;;;;5022395;28;20017;-72
2023/08/11 09:05:43;;;;;;;6.22;3.13;;;;;;;;;;5025591;28;20663;-73
2023/08/11 09:08:30;;;;;;;6.80;3.28;;;;;;;;;;5024226;28;20029;-69
2023/08/11 09:11:15;;;;;;;6.43;3.67;;;;;;;;;;5021269;28;20030;-69
2023/08/11 09:14:01;;;;;;;4.78;3.22;;;;;;;;;;5015902;28;20062;-71
2023/08/11 09:16:49;;;;;;;4.70;2.92;;;;;;;;;;5026879;28;20038;-70
2023/08/11 09:19:34;;;;;;;6.70;3.33;;;;;;;;;;5023491;28;20048;-70
2023/08/11 09:22:26;;;;;;;5.03;3.08;;;;;;;;;;5023395;28;20715;-76
2023/08/11 09:25:12;;;;;;;4.65;2.92;;;;;;;;;;5027472;28;20036;-75
2023/08/11 09:27:58;;;;;;;3.85;2.72;;;;;;;;;;5025731;28;20053;-77
2023/08/11 09:30:43;;;;;;;7.60;4.15;;;;;;;;;;5018223;28;20034;-75
2023/08/11 09:33:30;;;;;;;7.03;2.67;;;;;;;;;;5029324;28;20021;-76
2023/08/11 09:36:17;;;;;;;3.65;2.97;;;;;;;;;;5029876;28;20060;-75
2023/08/11 09:39:05;;;;;;;7.93;3.03;;;;;;;;;;5017223;28;20069;-76
2023/08/11 09:41:51;;;;;;;5.55;2.70;;;;;;;;;;5019845;28;20041;-71
2023/08/11 09:44:37;;;;;;;5.03;3.10;;;;;;;;;;5027140;28;20041;-72
2023/08/11 09:47:22;;;;;;;5.25;3.00;;;;;;;;;;5021920;28;20056;-71
2023/08/11 09:50:10;;;;;;;3.80;2.83;;;;;;;;;;5028505;28;20036;-71
2023/08/11 09:52:57;;;;;;;3.85;2.67;;;;;;;;;;5022440;28;20033;-67
2023/08/11 09:55:42;;;;;;;4.35;2.83;;;;;;;;;;5021481;28;20053;-66
2023/08/11 09:58:28;;;;;;;4.65;3.00;;;;;;;;;;5020653;28;20052;-68
2023/08/11 10:01:14;;;;;;;6.25;3.20;;;;;;;;;;5025120;28;20124;-69
2023/08/11 10:04:02;;;;;;;5.57;3.53;;;;;;;;;;5027139;28;20138;-72
2023/08/11 10:06:49;;;;;;;6.97;3.33;;;;;;;;;;5024523;28;20036;-74
2023/08/11 10:09:35;;;;;;;7.43;2.92;;;;;;;;;;5023260;28;20029;-75
2023/08/11 10:12:21;;;;;;;7.93;3.55;;;;;;;;;;5030131;28;20026;-72
2023/08/11 10:15:08;;;;;;;5.28;3.40;;;;;;;;;;5031962;28;20029;-76
2023/08/11 10:17:54;;;;;;;7.82;3.72;;;;;;;;;;5028660;28;20025;-75
2023/08/11 10:20:39;;;;;;;6.03;3.40;;;;;;;;;;5024560;28;20060;-72
2023/08/11 10:23:24;;;;;;;5.57;3.10;;;;;;;;;;5022995;28;20036;-70
2023/08/11 10:26:10;;;;;;;4.47;2.97;;;;;;;;;;5026023;28;20026;-71
2023/08/11 10:28:55;;;;;;;3.92;2.83;;;;;;;;;;5029422;28;20088;-74
2023/08/11 10:31:51;;;;;;;4.75;3.17;;;;;;;;;;5035753;28;20056;-73
2023/08/11 10:34:37;;;;;;;4.47;2.80;;;;;;;;;;5028431;28;20061;-65
2023/08/11 10:37:27;;;;;;;4.45;3.22;;;;;;;;;;5028875;28;20026;-73
2023/08/11 10:40:12;;;;;;;7.10;3.50;;;;;;;;;;5028030;28;20055;-74
2023/08/11 10:42:59;;;;;;;6.07;3.10;;;;;;;;;;5026888;28;20453;-74
2023/08/11 10:45:44;;;;;;;6.07;3.50;;;;;;;;;;5026136;28;20032;-75
2023/08/11 10:48:30;;;;;;;10.50;3.15;;;;;;;;;;5019393;28;20022;-73
2023/08/11 10:51:50;;;;;;;7.25;3.97;;;;;;;;;;5027213;28;20520;-72
2023/08/11 10:54:36;;;;;;;6.00;3.67;;;;;;;;;;4970493;28;20034;-65
2023/08/11 10:57:22;;;;;;;9.02;3.45;;;;;;;;;;5024763;28;20124;-70
2023/08/11 11:00:10;;;;;;;12.20;3.70;;;;;;;;;;5027597;28;20136;-71
2023/08/11 11:02:55;;;;;;;10.73;3.35;;;;;;;;;;5030988;28;20411;-71
2023/08/11 11:05:41;;;;;;;5.65;3.13;;;;;;;;;;5026193;28;20072;-70
2023/08/11 11:08:27;;;;;;;6.25;3.20;;;;;;;;;;5025798;28;20022;-69
2023/08/11 11:11:12;;;;;;;6.15;3.05;;;;;;;;;;5025661;28;20033;-72
2023/08/11 11:13:58;;;;;;;3.22;2.42;;;;;;;;;;5026291;28;20501;-67
2023/08/11 11:16:43;;;;;;;4.90;3.25;;;;;;;;;;5026628;28;20529;-66
2023/08/11 11:19:29;;;;;;;6.78;2.75;;;;;;;;;;5026049;28;20476;-68
2023/08/11 11:22:16;;;;;;;4.60;2.60;;;;;;;;;;5022111;28;20029;-67
2023/08/11 11:25:01;;;;;;;6.32;3.10;;;;;;;;;;5024388;28;20022;-69
2023/08/11 11:27:47;;;;;;;5.78;3.20;;;;;;;;;;5026354;28;20029;-68
2023/08/11 11:30:32;;;;;;;6.50;3.08;;;;;;;;;;5032769;28;20028;-72
2023/08/11 11:33:17;;;;;;;6.95;3.58;;;;;;;;;;5044493;28;20037;-73
2023/08/11 11:36:03;;;;;;;2.92;2.53;;;;;;;;;;5036663;28;20512;-71
2023/08/11 11:38:48;;;;;;;6.20;3.20;;;;;;;;;;5025118;28;20036;-72
2023/08/11 11:41:33;;;;;;;7.80;3.50;;;;;;;;;;5030110;28;20078;-73
2023/08/11 11:44:19;;;;;;;3.97;2.83;;;;;;;;;;5027044;28;20037;-73
2023/08/11 11:47:05;;;;;;;6.82;3.60;;;;;;;;;;5024821;28;20042;-65
2023/08/11 11:49:57;;;;;;;6.88;3.45;;;;;;;;;;5023803;28;20061;-69
2023/08/11 11:52:47;;;;;;;4.65;3.40;;;;;;;;;;5024466;28;20029;-66
2023/08/11 11:55:41;;;;;;;4.78;3.03;;;;;;;;;;5017530;28;20054;-68
2023/08/11 11:58:26;;;;;;;5.10;3.08;;;;;;;;;;5010798;28;20104;-66
2023/08/11 12:01:16;;;;;;;4.20;2.95;;;;;;;;;;5026838;28;20072;-70
2023/08/11 12:04:02;;;;;;;5.57;3.45;;;;;;;;;;5026878;28;20120;-68
2023/08/11 12:06:48;;;;;;;6.15;3.25;;;;;;;;;;5026982;28;20037;-66
2023/08/11 12:09:50;;;;;;;5.95;3.42;;;;;;;;;;5028549;28;20045;-67
2023/08/11 12:12:36;;;;;;;4.50;3.10;;;;;;;;;;5023236;28;20545;-66
2023/08/11 12:15:21;;;;;;;4.57;2.85;;;;;;;;;;5027649;28;20112;-72
2023/08/11 12:18:06;;;;;;;4.72;3.08;;;;;;;;;;5022210;28;20025;-74
2023/08/11 12:20:51;;;;;;;6.93;3.13;;;;;;;;;;5027811;28;20388;-72
2023/08/11 12:23:37;;;;;;;5.75;3.40;;;;;;;;;;5019303;28;20040;-71
2023/08/11 12:26:22;;;;;;;6.70;3.13;;;;;;;;;;5024844;28;20025;-68
2023/08/11 12:29:08;;;;;;;5.55;3.75;;;;;;;;;;5025205;28;20036;-69
2023/08/11 12:31:53;;;;;;;4.75;3.85;;;;;;;;;;5026115;28;20112;-69
2023/08/11 12:34:38;;;;;;;5.18;3.92;;;;;;;;;;5023326;28;20033;-68
2023/08/11 12:37:26;;;;;;;5.40;3.95;;;;;;;;;;5020971;28;20451;-69
2023/08/11 12:40:11;;;;;;;7.80;3.72;;;;;;;;;;5021549;28;20041;-70
2023/08/11 12:42:57;;;;;;;5.75;3.40;;;;;;;;;;5016102;28;20033;-68
2023/08/11 12:45:44;;;;;;;7.25;3.95;;;;;;;;;;5022272;28;20491;-73
2023/08/11 12:48:29;;;;;;;5.40;3.50;;;;;;;;;;5022982;28;20112;-72
2023/08/11 12:51:14;;;;;;;5.78;3.85;;;;;;;;;;5028027;28;20040;-71
2023/08/11 12:54:00;;;;;;;9.73;4.22;;;;;;;;;;5023909;28;20067;-75
2023/08/11 12:56:45;;;;;;;5.60;3.53;;;;;;;;;;5024059;28;20053;-74
2023/08/11 12:59:30;;;;;;;5.43;3.95;;;;;;;;;;5023109;28;20086;-75
2023/08/11 13:02:16;;;;;;;6.63;3.85;;;;;;;;;;5012860;28;20029;-66
2023/08/11 13:05:01;;;;;;;4.75;3.47;;;;;;;;;;5022845;28;20045;-73
2023/08/11 13:07:46;;;;;;;9.18;3.55;;;;;;;;;;5024286;28;20033;-77
2023/08/11 13:10:32;;;;;;;7.07;4.03;;;;;;;;;;5025586;28;20025;-73
2023/08/11 13:13:17;;;;;;;7.22;3.97;;;;;;;;;;5019873;28;20056;-73
2023/08/11 13:16:02;;;;;;;6.50;4.00;;;;;;;;;;5022796;28;20075;-71
2023/08/11 13:18:47;;;;;;;4.75;3.38;;;;;;;;;;5026119;28;20033;-71
2023/08/11 13:21:33;;;;;;;5.80;3.70;;;;;;;;;;5022610;28;20405;-72
2023/08/11 13:24:19;;;;;;;4.80;3.25;;;;;;;;;;5023110;28;20028;-65
2023/08/11 13:27:04;;;;;;;4.43;3.25;;;;;;;;;;5024356;28;20033;-66
2023/08/11 13:29:49;;;;;;;4.65;3.45;;;;;;;;;;5023334;28;20030;-66
2023/08/11 13:32:35;;;;;;;3.80;3.35;;;;;;;;;;5022973;28;20044;-65
2023/08/11 13:35:20;;;;;;;4.97;3.10;;;;;;;;;;5030572;28;20037;-65
2023/08/11 13:38:05;;;;;;;6.25;3.15;;;;;;;;;;5023726;28;20029;-67
2023/08/11 13:40:51;;;;;;;4.70;3.13;;;;;;;;;;5028471;28;20331;-75
2023/08/11 13:43:36;;;;;;;7.25;3.40;;;;;;;;;;5030486;28;20056;-75
2023/08/11 13:46:21;;;;;;;4.88;3.10;;;;;;;;;;5031867;28;20380;-75
2023/08/11 13:49:07;;;;;;;6.85;3.28;;;;;;;;;;5033033;28;20033;-76
2023/08/11 13:51:52;;;;;;;5.25;3.58;;;;;;;;;;5029365;28;20396;-76
2023/08/11 13:54:37;;;;;;;6.00;3.45;;;;;;;;;;5031332;28;20025;-78
2023/08/11 13:57:22;;;;;;;4.88;3.25;;;;;;;;;;5026464;28;20024;-63
2023/08/11 14:00:08;;;;;;;5.20;3.40;;;;;;;;;;5012039;28;20300;-74
2023/08/11 14:02:53;;;;;;;4.78;2.83;;;;;;;;;;5026008;28;20038;-75
2023/08/11 14:05:38;;;;;;;7.05;3.60;;;;;;;;;;5029542;28;20028;-76
2023/08/11 14:08:24;;;;;;;5.90;3.28;;;;;;;;;;5030407;28;20419;-74
2023/08/11 14:11:10;;;;;;;5.03;3.42;;;;;;;;;;5027262;28;20030;-73
2023/08/11 14:13:55;;;;;;;6.88;3.05;;;;;;;;;;5024847;28;20461;-73
2023/08/11 14:16:40;;;;;;;7.43;3.78;;;;;;;;;;5027478;28;20040;-76
2023/08/11 14:19:25;;;;;;;7.25;3.63;;;;;;;;;;5032692;28;20033;-66
2023/08/11 14:22:11;;;;;;;6.35;3.60;;;;;;;;;;5028815;28;20032;-65
2023/08/11 14:24:56;;;;;;;6.75;3.97;;;;;;;;;;5032234;28;20033;-67
2023/08/11 14:27:41;;;;;;;5.32;3.42;;;;;;;;;;5014429;28;20040;-66
2023/08/11 14:30:27;;;;;;;5.88;3.75;;;;;;;;;;5025367;28;20665;-67
2023/08/11 14:33:12;;;;;;;6.55;3.95;;;;;;;;;;5022457;28;20480;-74
2023/08/11 14:35:58;;;;;;;3.83;3.08;;;;;;;;;;5027136;28;20029;-68
2023/08/11 14:38:43;;;;;;;5.70;3.10;;;;;;;;;;5028213;28;20036;-69
2023/08/11 14:41:28;;;;;;;5.22;3.25;;;;;;;;;;5030096;28;20041;-70
2023/08/11 14:44:16;;;;;;;4.15;3.20;;;;;;;;;;5028112;28;20059;-67
2023/08/11 14:47:02;;;;;;;5.95;2.85;;;;;;;;;;5030442;28;20046;-66
2023/08/11 14:49:47;;;;;;;5.18;2.95;;;;;;;;;;5028054;28;20029;-67
2023/08/11 14:52:32;;;;;;;6.60;3.45;;;;;;;;;;5030417;28;20035;-67
2023/08/11 14:55:17;;;;;;;3.85;2.78;;;;;;;;;;5024188;28;20568;-68
2023/08/11 14:58:03;;;;;;;4.15;3.03;;;;;;;;;;5030669;28;20116;-67
2023/08/11 15:00:49;;;;;;;4.03;3.00;;;;;;;;;;5036286;28;20042;-68
2023/08/11 15:03:34;;;;;;;7.05;3.88;;;;;;;;;;5025486;28;20168;-67
2023/08/11 15:06:19;;;;;;;5.18;3.38;;;;;;;;;;5021398;28;20036;-68
2023/08/11 15:09:04;;;;;;;5.22;3.50;;;;;;;;;;5026754;28;20548;-69
2023/08/11 15:11:50;;;;;;;4.88;3.33;;;;;;;;;;5025588;28;20400;-79
2023/08/11 15:14:35;;;;;;;12.80;3.20;;;;;;;;;;5026806;28;20376;-82
2023/08/11 15:17:20;;;;;;;7.50;3.55;;;;;;;;;;5021871;28;20025;-84
2023/08/11 15:20:05;;;;;;;5.15;3.17;;;;;;;;;;5027896;28;20044;-84
2023/08/11 15:22:51;;;;;;;7.38;3.63;;;;;;;;;;5026885;28;20029;-85
2023/08/11 15:25:36;;;;;;;5.85;3.25;;;;;;;;;;5037697;28;20236;-82
2023/08/11 15:28:21;;;;;;;4.03;3.00;;;;;;;;;;5028629;28;20037;-69
2023/08/11 15:31:07;;;;;;;3.83;2.67;;;;;;;;;;5026355;28;20045;-75
2023/08/11 15:33:52;;;;;;;6.55;3.03;;;;;;;;;;5029787;28;20029;-78
2023/08/11 15:36:37;;;;;;;4.15;3.05;;;;;;;;;;5040327;28;20033;-76
2023/08/11 15:39:22;;;;;;;6.25;3.15;;;;;;;;;;5021138;28;20041;-76
2023/08/11 15:42:08;;;;;;;5.07;2.78;;;;;;;;;;5026232;28;20428;-77
2023/08/11 15:44:53;;;;;;;4.95;2.90;;;;;;;;;;5017250;28;20041;-76
2023/08/11 15:47:38;;;;;;;5.82;3.33;;;;;;;;;;5027186;28;20060;-76
2023/08/11 15:50:23;;;;;;;8.70;3.08;;;;;;;;;;5032845;28;20021;-70
2023/08/11 15:53:08;;;;;;;4.80;3.05;;;;;;;;;;5019682;28;20534;-69
2023/08/11 15:55:54;;;;;;;6.72;3.85;;;;;;;;;;5021268;28;20041;-69
2023/08/11 15:58:40;;;;;;;4.38;2.45;;;;;;;;;;5022596;28;20034;-69
2023/08/11 16:01:25;;;;;;;5.03;3.08;;;;;;;;;;5038933;28;20052;-69
2023/08/11 16:04:11;;;;;;;5.53;3.58;;;;;;;;;;5023033;28;20045;-69
2023/08/11 16:06:56;;;;;;;4.60;3.00;;;;;;;;;;5029138;28;20120;-68
2023/08/11 16:09:41;;;;;;;4.68;2.67;;;;;;;;;;5028766;28;20649;-80
2023/08/11 16:12:27;;;;;;;8.95;3.25;;;;;;;;;;5027958;28;20038;-79
2023/08/11 16:15:12;;;;;;;4.40;2.97;;;;;;;;;;5030108;28;20228;-79
2023/08/11 16:17:57;;;;;;;4.50;3.05;;;;;;;;;;5035805;28;20068;-79
2023/08/11 16:20:42;;;;;;;5.07;2.50;;;;;;;;;;5024731;28;20029;-79
2023/08/11 16:23:28;;;;;;;6.63;2.88;;;;;;;;;;5032762;28;20025;-72
2023/08/11 16:26:13;;;;;;;5.80;2.88;;;;;;;;;;5011036;28;20650;-77
2023/08/11 16:28:58;;;;;;;4.35;2.85;;;;;;;;;;5032355;28;20025;-78
2023/08/11 16:31:43;;;;;;;3.78;2.85;;;;;;;;;;5033502;28;20108;-77
2023/08/11 16:34:29;;;;;;;6.43;3.22;;;;;;;;;;5032883;28;20651;-77